Time;durP1;ratioP1;P1;durP2;ratioP2;P2;SDS_P1;SDS_P2;PMS_P1;PMS_P2;Temp;Humidity;BMP_temperature;BMP_pressure;BME280_temperature;BME280_humidity;BME280_pressure;Samples;Min_cycle;Max_cycle;Signal;HPM_P1;HPM_P2
2021/06/09 00:01:21;;;;;;;36.90;33.77;;;15.30;99.90;;;;;;6121458;23;20608;-93
2021/06/09 00:03:48;;;;;;;34.90;31.60;;;15.30;99.90;;;;;;6123360;23;20708;-94
2021/06/09 00:06:14;;;;;;;34.73;31.57;;;15.30;99.90;;;;;;6122540;23;20581;-93
2021/06/09 00:08:42;;;;;;;34.80;31.70;;;15.40;99.90;;;;;;6121937;23;20636;-96
2021/06/09 00:11:10;;;;;;;36.50;33.30;;;15.30;99.90;;;;;;6122282;23;20620;-94
2021/06/09 00:13:37;;;;;;;34.90;30.53;;;15.30;99.90;;;;;;6122343;23;20617;-94
2021/06/09 00:16:07;;;;;;;34.93;31.80;;;15.30;99.90;;;;;;6120966;23;21132;-94
2021/06/09 00:18:39;;;;;;;32.67;29.83;;;15.20;99.90;;;;;;6124054;23;20632;-96
2021/06/09 00:21:06;;;;;;;32.93;29.90;;;15.20;99.90;;;;;;6129465;23;20607;-96
2021/06/09 00:23:33;;;;;;;31.87;29.00;;;15.00;99.90;;;;;;6130062;23;20612;-96
2021/06/09 00:26:05;;;;;;;31.50;28.80;;;15.00;99.90;;;;;;6133356;23;20581;-96
2021/06/09 00:28:35;;;;;;;29.57;26.90;;;14.90;99.90;;;;;;6127507;23;20606;-95
2021/06/09 00:31:04;;;;;;;32.50;29.70;;;14.90;99.90;;;;;;6099523;23;20647;-95
2021/06/09 00:33:31;;;;;;;32.00;29.30;;;14.80;99.90;;;;;;6124756;23;21254;-95
2021/06/09 00:35:58;;;;;;;32.83;29.80;;;14.80;99.90;;;;;;6126667;23;20554;-96
2021/06/09 00:38:33;;;;;;;33.20;30.00;;;14.70;99.90;;;;;;6126547;23;21225;-96
2021/06/09 00:41:05;;;;;;;31.47;28.70;;;14.80;99.90;;;;;;6126280;23;20584;-96
2021/06/09 00:43:34;;;;;;;31.93;29.10;;;14.80;99.90;;;;;;6129248;23;20609;-96
2021/06/09 00:46:02;;;;;;;33.87;31.13;;;14.80;99.90;;;;;;6128938;23;20679;-96
2021/06/09 00:48:30;;;;;;;33.70;30.70;;;14.90;99.90;;;;;;6127461;23;20600;-95
2021/06/09 00:50:59;;;;;;;36.80;33.50;;;14.90;99.90;;;;;;6127304;23;20593;-96
2021/06/09 00:53:31;;;;;;;36.63;33.33;;;15.00;99.90;;;;;;6128108;23;21009;-96
2021/06/09 00:55:59;;;;;;;34.87;31.70;;;15.00;99.90;;;;;;6126770;23;20592;-94
2021/06/09 00:58:28;;;;;;;33.30;30.40;;;15.10;99.90;;;;;;6128176;23;21063;-96
2021/06/09 01:01:08;;;;;;;33.63;30.90;;;15.10;99.90;;;;;;6129926;23;20589;-96
2021/06/09 01:03:37;;;;;;;35.73;32.63;;;15.10;99.90;;;;;;6128322;23;21065;-96
2021/06/09 01:06:04;;;;;;;38.73;35.47;;;15.10;99.90;;;;;;6128223;23;20615;-95
2021/06/09 01:08:33;;;;;;;40.10;36.30;;;15.20;99.90;;;;;;6138647;23;20755;-96
2021/06/09 01:11:01;;;;;;;37.17;33.50;;;15.20;99.90;;;;;;6135089;23;20589;-96
2021/06/09 01:13:29;;;;;;;39.30;35.80;;;15.20;99.90;;;;;;6133753;23;20652;-96
2021/06/09 01:16:08;;;;;;;42.60;38.17;;;15.40;99.90;;;;;;6140712;23;20617;-95
2021/06/09 01:18:36;;;;;;;40.10;36.30;;;15.40;99.90;;;;;;6139844;23;20672;-96
2021/06/09 01:21:04;;;;;;;38.47;34.87;;;15.30;99.90;;;;;;6140865;23;20791;-96
2021/06/09 01:24:10;;;;;;;40.63;36.93;;;15.30;99.90;;;;;;6142973;23;20609;-96
2021/06/09 01:29:45;;;;;;;42.47;38.30;;;15.40;99.90;;;;;;6145401;23;20611;-96
2021/06/09 01:32:16;;;;;;;41.20;37.47;;;15.40;99.90;;;;;;6138244;23;20609;-96
2021/06/09 01:34:50;;;;;;;38.70;35.20;;;15.40;99.90;;;;;;6137569;23;20616;-96
2021/06/09 01:37:22;;;;;;;40.30;36.63;;;15.40;99.90;;;;;;6120432;23;20639;-95
2021/06/09 01:39:48;;;;;;;37.20;32.40;;;15.40;99.90;;;;;;6138539;23;20933;-95
2021/06/09 01:47:27;;;;;;;36.90;33.57;;;15.40;99.90;;;;;;6094361;23;20657;-96
2021/06/09 01:49:54;;;;;;;39.50;36.00;;;15.40;99.90;;;;;;6093465;23;20586;-95
2021/06/09 01:52:20;;;;;;;42.80;36.30;;;15.40;99.90;;;;;;6069701;23;20586;-95
2021/06/09 01:54:47;;;;;;;42.00;38.20;;;15.40;99.90;;;;;;6094780;23;20593;-95
2021/06/09 01:57:14;;;;;;;36.87;33.10;;;15.50;99.90;;;;;;6094774;23;20610;-95
2021/06/09 01:59:43;;;;;;;41.80;37.90;;;15.50;99.90;;;;;;6072993;23;20586;-95
2021/06/09 02:02:11;;;;;;;44.97;40.30;;;15.50;99.90;;;;;;6095658;23;21095;-94
2021/06/09 02:04:42;;;;;;;60.10;42.90;;;15.40;99.90;;;;;;6093931;23;20574;-94
2021/06/09 02:07:09;;;;;;;231.83;49.90;;;15.40;99.90;;;;;;6094173;23;20616;-94
2021/06/09 02:09:37;;;;;;;211.33;48.90;;;15.40;99.90;;;;;;6116681;23;20596;-95
2021/06/09 02:12:06;;;;;;;141.67;48.07;;;15.30;99.90;;;;;;6118740;23;20605;-96
2021/06/09 02:14:33;;;;;;;74.63;44.60;;;15.30;99.90;;;;;;6119698;23;20622;-95
2021/06/09 02:17:00;;;;;;;119.57;44.90;;;15.30;99.90;;;;;;6119042;23;20644;-96
2021/06/09 02:19:27;;;;;;;81.83;45.20;;;15.20;99.90;;;;;;6120009;23;20578;-95
2021/06/09 02:21:55;;;;;;;433.17;55.07;;;15.30;99.90;;;;;;6120922;23;20577;-96
2021/06/09 02:24:23;;;;;;;241.50;47.03;;;15.20;99.90;;;;;;6120339;23;20643;-94
2021/06/09 02:26:50;;;;;;;194.43;46.70;;;15.10;99.90;;;;;;6097248;23;20581;-94
2021/06/09 02:29:17;;;;;;;186.17;46.10;;;15.20;99.90;;;;;;6094944;23;20987;-95
2021/06/09 02:31:47;;;;;;;363.67;50.77;;;15.20;99.90;;;;;;6094412;23;20598;-94
2021/06/09 02:34:15;;;;;;;253.27;46.37;;;15.20;99.90;;;;;;6093757;23;20634;-93
2021/06/09 02:36:44;;;;;;;456.40;54.10;;;15.20;99.90;;;;;;6101364;23;20713;-95
2021/06/09 02:39:27;;;;;;;272.33;47.77;;;15.10;99.90;;;;;;6107740;23;20597;-95
2021/06/09 02:41:54;;;;;;;200.70;45.77;;;15.10;99.90;;;;;;6103516;23;21217;-94
2021/06/09 02:44:20;;;;;;;309.97;47.40;;;15.00;99.90;;;;;;6106193;23;20586;-96
2021/06/09 02:46:53;;;;;;;352.87;51.97;;;15.00;99.90;;;;;;6103873;23;20607;-94
2021/06/09 02:49:24;;;;;;;168.07;44.47;;;15.00;99.90;;;;;;6102190;23;20672;-95
2021/06/09 02:51:56;;;;;;;347.53;53.20;;;15.10;99.90;;;;;;6095994;23;20582;-95
2021/06/09 02:54:31;;;;;;;554.53;60.93;;;15.10;99.90;;;;;;6094668;23;20701;-96
2021/06/09 02:57:05;;;;;;;257.03;52.67;;;15.10;99.90;;;;;;6094039;23;20610;-96
2021/06/09 02:59:44;;;;;;;310.50;54.80;;;15.10;99.90;;;;;;6095854;23;20672;-94
2021/06/09 03:02:15;;;;;;;212.53;47.57;;;15.10;99.90;;;;;;6095820;23;20617;-95
2021/06/09 03:04:48;;;;;;;121.17;42.90;;;15.10;99.90;;;;;;6097304;23;20586;-95
2021/06/09 03:07:23;;;;;;;132.83;43.87;;;15.10;99.90;;;;;;6098644;23;20598;-95
2021/06/09 03:10:02;;;;;;;90.60;45.93;;;15.10;99.90;;;;;;6099293;23;20578;-95
2021/06/09 03:12:40;;;;;;;80.50;39.60;;;15.10;99.90;;;;;;6098047;23;20672;-96
2021/06/09 03:15:12;;;;;;;48.37;40.50;;;15.10;99.90;;;;;;6096217;23;20622;-95
2021/06/09 03:17:52;;;;;;;55.93;39.00;;;15.10;99.90;;;;;;6094349;23;20713;-95
2021/06/09 03:20:28;;;;;;;38.20;34.70;;;15.00;99.90;;;;;;6095249;23;20583;-94
2021/06/09 03:23:05;;;;;;;40.77;35.93;;;15.00;99.90;;;;;;6096631;23;21182;-94
2021/06/09 03:25:39;;;;;;;44.43;36.47;;;15.10;99.90;;;;;;6098248;23;20659;-93
2021/06/09 03:28:19;;;;;;;45.50;37.77;;;15.00;99.90;;;;;;6091019;23;20586;-94
2021/06/09 03:30:52;;;;;;;41.90;37.60;;;15.00;99.90;;;;;;6093240;23;20586;-94
2021/06/09 03:33:24;;;;;;;43.57;36.67;;;15.00;99.90;;;;;;6093331;23;20625;-92
2021/06/09 03:35:55;;;;;;;43.07;38.03;;;15.00;99.90;;;;;;6094512;23;20582;-92
2021/06/09 03:41:23;;;;;;;48.47;38.57;;;15.00;99.90;;;;;;6104545;23;20590;-96
2021/06/09 03:43:53;;;;;;;47.80;40.80;;;15.00;99.90;;;;;;6106063;23;20637;-96
2021/06/09 03:46:24;;;;;;;59.47;43.80;;;15.00;99.90;;;;;;6112075;23;20601;-96
2021/06/09 03:49:09;;;;;;;58.10;44.53;;;15.00;99.90;;;;;;6115590;23;20598;-96
2021/06/09 03:51:38;;;;;;;61.60;46.17;;;15.00;99.90;;;;;;6101035;23;20589;-95
2021/06/09 03:54:17;;;;;;;53.10;43.93;;;15.00;99.90;;;;;;6106352;23;20630;-96
2021/06/09 03:56:58;;;;;;;48.60;39.73;;;15.00;99.90;;;;;;6108119;23;20592;-95
2021/06/09 03:59:46;;;;;;;55.30;42.70;;;15.00;99.90;;;;;;6116771;23;20651;-96
2021/06/09 04:02:17;;;;;;;42.60;38.30;;;15.00;99.90;;;;;;6114213;23;20610;-95
2021/06/09 04:04:46;;;;;;;46.40;39.40;;;15.00;99.90;;;;;;6105067;23;20693;-96
2021/06/09 04:07:14;;;;;;;47.50;39.80;;;15.00;99.90;;;;;;6102910;23;21286;-96
2021/06/09 04:09:45;;;;;;;49.50;39.80;;;15.10;99.90;;;;;;6102627;23;20606;-95
2021/06/09 04:13:06;;;;;;;65.73;40.77;;;15.10;99.90;;;;;;6113716;23;20641;-96
2021/06/09 04:16:02;;;;;;;51.00;39.07;;;15.10;99.90;;;;;;6091913;23;20586;-95
2021/06/09 04:18:45;;;;;;;62.07;38.67;;;15.10;99.90;;;;;;6102332;23;21179;-94
2021/06/09 04:24:12;;;;;;;108.50;43.17;;;15.20;99.90;;;;;;6109291;23;20598;-96
2021/06/09 04:26:54;;;;;;;117.67;45.73;;;15.20;99.90;;;;;;6108445;23;20581;-96
2021/06/09 04:35:25;;;;;;;182.50;48.63;;;15.20;99.90;;;;;;6151177;23;20574;-96
2021/06/09 04:38:01;;;;;;;168.93;49.43;;;15.20;99.90;;;;;;6145090;23;20613;-96
2021/06/09 04:40:33;;;;;;;147.33;47.67;;;15.20;99.90;;;;;;6119846;23;20581;-96
2021/06/09 04:43:06;;;;;;;185.57;46.73;;;15.30;99.90;;;;;;6143123;23;20604;-95
2021/06/09 04:45:40;;;;;;;246.60;51.00;;;15.30;99.90;;;;;;6125094;23;20589;-96
2021/06/09 04:48:16;;;;;;;198.10;53.83;;;15.20;99.90;;;;;;6149092;23;20553;-94
2021/06/09 04:50:48;;;;;;;139.27;49.40;;;15.30;99.90;;;;;;6150038;23;20565;-96
2021/06/09 04:53:17;;;;;;;111.73;40.47;;;15.30;99.90;;;;;;6147064;23;20665;-95
2021/06/09 04:55:46;;;;;;;147.80;47.87;;;15.30;99.90;;;;;;6148566;23;20568;-94
2021/06/09 04:58:15;;;;;;;196.17;51.23;;;15.30;99.90;;;;;;6147897;23;20959;-94
2021/06/09 05:00:44;;;;;;;130.53;47.93;;;15.30;99.90;;;;;;6147984;23;20695;-93
2021/06/09 05:03:11;;;;;;;138.03;48.30;;;15.30;99.90;;;;;;6149548;23;20594;-94
2021/06/09 05:05:39;;;;;;;153.53;48.53;;;15.40;99.90;;;;;;6149489;23;20565;-96
2021/06/09 05:08:10;;;;;;;74.67;44.40;;;15.30;99.90;;;;;;6150911;23;20600;-95
2021/06/09 05:10:41;;;;;;;89.67;42.13;;;15.30;99.90;;;;;;6124611;23;20577;-94
2021/06/09 05:13:25;;;;;;;70.77;41.70;;;15.30;99.90;;;;;;6150408;23;20580;-95
2021/06/09 05:15:59;;;;;;;59.27;39.13;;;15.30;99.90;;;;;;6150399;23;20599;-95
2021/06/09 05:18:32;;;;;;;72.73;42.33;;;15.30;99.90;;;;;;6151081;23;20620;-95
2021/06/09 05:21:01;;;;;;;86.83;40.33;;;15.40;99.90;;;;;;6151810;23;20597;-96
2021/06/09 05:26:48;;;;;;;115.10;42.80;;;15.50;99.90;;;;;;6149409;23;20609;-95
2021/06/09 05:29:17;;;;;;;84.27;42.47;;;15.40;99.90;;;;;;6149723;23;20609;-96
2021/06/09 05:31:55;;;;;;;60.07;32.17;;;15.50;99.90;;;;;;6150792;23;20612;-95
2021/06/09 05:34:23;;;;;;;77.27;31.37;;;15.60;99.90;;;;;;6150631;23;20624;-95
2021/06/09 05:36:52;;;;;;;77.27;39.67;;;15.70;99.90;;;;;;6151853;23;20577;-96
2021/06/09 05:42:22;;;;;;;96.80;40.00;;;15.80;99.90;;;;;;6143500;23;20588;-95
2021/06/09 05:48:45;;;;;;;64.97;38.70;;;15.70;99.90;;;;;;6103370;23;20627;-96
2021/06/09 05:51:17;;;;;;;52.07;38.40;;;15.80;99.90;;;;;;6153181;23;20866;-95
2021/06/09 05:54:23;;;;;;;68.33;36.80;;;15.80;99.90;;;;;;6149472;23;20588;-96
2021/06/09 05:56:57;;;;;;;42.70;36.07;;;15.90;99.90;;;;;;6149982;23;20601;-95
2021/06/09 05:59:25;;;;;;;45.97;33.47;;;16.00;99.90;;;;;;6176623;23;20599;-96
2021/06/09 06:01:51;;;;;;;42.67;34.07;;;16.00;99.90;;;;;;6173670;23;20615;-96
2021/06/09 06:04:28;;;;;;;33.63;24.87;;;16.00;99.90;;;;;;6171096;23;21109;-95
2021/06/09 06:25:59;;;;;;;35.00;27.17;;;16.50;99.90;;;;;;6114227;23;20677;-95
2021/06/09 06:28:33;;;;;;;33.50;26.13;;;16.40;99.90;;;;;;6140339;23;20589;-96
2021/06/09 06:31:14;;;;;;;42.07;34.37;;;16.60;99.90;;;;;;6139714;23;20533;-95
2021/06/09 06:33:56;;;;;;;35.70;31.80;;;16.60;99.90;;;;;;6138195;23;20647;-96
2021/06/09 06:38:59;;;;;;;34.87;31.57;;;17.10;99.90;;;;;;6174132;23;20656;-96
2021/06/09 06:41:30;;;;;;;33.87;30.30;;;17.10;99.90;;;;;;6141356;23;20600;-96
2021/06/09 06:44:02;;;;;;;27.40;22.03;;;17.10;99.90;;;;;;6146824;23;20683;-95
2021/06/09 06:46:48;;;;;;;27.00;22.90;;;17.20;99.90;;;;;;6171699;23;20671;-96
2021/06/09 06:49:18;;;;;;;28.73;23.73;;;17.30;99.90;;;;;;6177019;23;20596;-96
2021/06/09 06:51:47;;;;;;;26.23;23.60;;;17.30;99.90;;;;;;6180006;23;20587;-96
2021/06/09 06:54:33;;;;;;;27.67;22.17;;;17.40;99.90;;;;;;6176964;23;20600;-96
2021/06/09 06:57:05;;;;;;;27.07;23.30;;;17.50;99.90;;;;;;6177860;23;21183;-96
2021/06/09 06:59:51;;;;;;;24.23;21.87;;;17.50;99.90;;;;;;6176741;23;20576;-96
2021/06/09 07:02:47;;;;;;;29.57;26.97;;;17.60;99.90;;;;;;6173295;23;20588;-96
2021/06/09 07:05:20;;;;;;;29.03;26.10;;;17.80;99.90;;;;;;6149484;23;20585;-96
2021/06/09 07:17:16;;;;;;;30.13;27.13;;;17.90;99.90;;;;;;6177571;23;20620;-96
2021/06/09 07:20:19;;;;;;;27.70;24.73;;;18.00;99.90;;;;;;6181462;23;21127;-96
2021/06/09 07:29:08;;;;;;;28.37;24.30;;;18.20;99.90;;;;;;6179711;23;20639;-96
2021/06/09 07:34:21;;;;;;;26.87;24.00;;;18.20;99.90;;;;;;6155967;23;20668;-96
2021/06/09 07:40:13;;;;;;;31.57;23.10;;;18.40;99.90;;;;;;6153205;23;20533;-96
2021/06/09 08:09:39;;;;;;;25.33;22.73;;;20.70;99.90;;;;;;6170188;23;20628;-96
2021/06/09 08:12:15;;;;;;;27.07;24.27;;;20.70;99.90;;;;;;6173517;23;20876;-96
2021/06/09 08:14:51;;;;;;;24.40;22.20;;;20.60;99.90;;;;;;6165794;23;20608;-96
2021/06/09 08:17:45;;;;;;;26.20;24.00;;;20.80;99.90;;;;;;6151683;23;20642;-96
2021/06/09 08:27:38;;;;;;;26.60;24.30;;;20.90;99.90;;;;;;6171676;23;20647;-96
2021/06/09 08:32:41;;;;;;;22.97;20.97;;;21.00;99.90;;;;;;6149454;23;20252;-95
2021/06/09 08:35:09;;;;;;;25.83;23.73;;;21.30;99.90;;;;;;6150373;23;21333;-91
2021/06/09 08:37:37;;;;;;;26.13;24.03;;;21.40;99.90;;;;;;6125467;23;21353;-92
2021/06/09 08:40:06;;;;;;;25.90;23.20;;;21.40;99.90;;;;;;6153573;23;20588;-90
2021/06/09 08:42:35;;;;;;;24.13;21.93;;;21.60;99.90;;;;;;6130444;23;20660;-90
2021/06/09 08:45:05;;;;;;;26.30;24.10;;;22.00;99.90;;;;;;6153692;23;20595;-92
2021/06/09 08:47:33;;;;;;;24.60;22.50;;;21.80;99.90;;;;;;6154086;23;20549;-93
2021/06/09 08:50:02;;;;;;;24.07;22.07;;;21.90;99.90;;;;;;6151398;23;20592;-92
2021/06/09 08:52:30;;;;;;;25.43;23.20;;;21.80;99.90;;;;;;6153805;23;20631;-91
2021/06/09 08:54:57;;;;;;;25.13;23.13;;;21.90;99.90;;;;;;6133856;23;20588;-92
2021/06/09 08:57:23;;;;;;;24.70;22.80;;;22.20;99.90;;;;;;6153496;23;20620;-92
2021/06/09 08:59:52;;;;;;;23.13;21.03;;;22.10;99.90;;;;;;6152847;23;20894;-93
2021/06/09 09:02:21;;;;;;;26.00;23.80;;;22.30;99.90;;;;;;6125773;23;21247;-92
2021/06/09 09:04:53;;;;;;;24.77;22.87;;;22.10;99.90;;;;;;6123911;23;21370;-94
2021/06/09 09:07:28;;;;;;;25.90;23.80;;;22.00;99.90;;;;;;6136723;23;20587;-93
2021/06/09 09:09:56;;;;;;;24.43;22.53;;;22.10;99.90;;;;;;6148406;23;20564;-95
2021/06/09 09:12:23;;;;;;;26.10;23.90;;;22.00;99.90;;;;;;6178252;23;20580;-94
2021/06/09 09:14:51;;;;;;;25.43;23.37;;;22.10;99.90;;;;;;6166451;23;20715;-94
2021/06/09 09:17:25;;;;;;;27.20;25.00;;;22.20;99.90;;;;;;6159957;23;20612;-95
2021/06/09 09:20:04;;;;;;;25.83;23.53;;;22.20;99.90;;;;;;6160026;23;20576;-94
2021/06/09 09:22:35;;;;;;;26.20;24.20;;;22.00;99.90;;;;;;6161494;23;20513;-96
2021/06/09 09:25:11;;;;;;;28.30;26.10;;;21.90;99.90;;;;;;6161547;23;21200;-95
2021/06/09 09:27:40;;;;;;;27.10;24.70;;;22.10;99.90;;;;;;6158158;23;20568;-95
2021/06/09 09:30:10;;;;;;;26.00;23.67;;;22.10;99.90;;;;;;6156113;23;20606;-95
2021/06/09 09:33:07;;;;;;;27.37;25.07;;;22.20;99.90;;;;;;6156559;23;20596;-95
2021/06/09 09:35:36;;;;;;;26.77;24.67;;;22.50;99.90;;;;;;6165513;23;20591;-94
2021/06/09 09:38:22;;;;;;;27.37;24.77;;;22.40;99.90;;;;;;6156422;23;21603;-93
2021/06/09 09:41:07;;;;;;;26.43;24.43;;;22.40;99.90;;;;;;6158828;23;20707;-93
2021/06/09 09:43:52;;;;;;;24.37;22.57;;;22.40;99.90;;;;;;6156902;23;20591;-96
2021/06/09 09:46:30;;;;;;;26.17;23.90;;;22.40;99.90;;;;;;6162878;23;20590;-96
2021/06/09 09:49:17;;;;;;;27.50;25.27;;;22.60;99.90;;;;;;6164830;23;20580;-95
2021/06/09 09:52:01;;;;;;;29.97;27.37;;;23.00;99.90;;;;;;6158227;23;20618;-93
2021/06/09 09:57:38;;;;;;;25.50;23.33;;;23.10;99.90;;;;;;6174727;23;20711;-96
2021/06/09 10:00:26;;;;;;;27.57;25.37;;;24.10;99.90;;;;;;6176713;23;20572;-96
2021/06/09 10:06:16;;;;;;;24.57;22.70;;;23.50;99.90;;;;;;6148812;23;20632;-96
2021/06/09 10:08:43;;;;;;;27.83;25.57;;;23.90;99.90;;;;;;6162641;23;20575;-96
2021/06/09 10:11:16;;;;;;;22.27;20.57;;;24.10;99.90;;;;;;6141414;23;20595;-96
2021/06/09 10:13:44;;;;;;;24.50;22.60;;;24.40;99.90;;;;;;6170028;23;20584;-96
2021/06/09 10:16:28;;;;;;;27.37;25.13;;;25.10;99.90;;;;;;6168534;23;20632;-96
2021/06/09 10:18:57;;;;;;;25.87;23.97;;;24.50;99.90;;;;;;6160426;23;20633;-96
2021/06/09 10:21:46;;;;;;;26.40;24.33;;;24.70;99.90;;;;;;6164579;23;20579;-96
2021/06/09 10:24:22;;;;;;;26.90;24.90;;;24.40;99.90;;;;;;6158320;23;20675;-96
2021/06/09 10:26:53;;;;;;;27.17;25.13;;;24.20;99.90;;;;;;6168892;23;20604;-95
2021/06/09 10:29:37;;;;;;;25.10;23.40;;;24.30;99.90;;;;;;6166199;23;20578;-95
2021/06/09 10:35:26;;;;;;;25.23;23.50;;;24.30;99.90;;;;;;6181336;23;20610;-96
2021/06/09 10:51:57;;;;;;;24.77;22.87;;;24.10;99.90;;;;;;6373411;22;154680;-96
2021/06/09 10:54:41;;;;;;;24.97;22.93;;;25.20;99.90;;;;;;6404857;22;20557;-96
2021/06/09 11:00:39;;;;;;;16.73;15.37;;;25.90;99.90;;;;;;6353434;22;20649;-96
2021/06/09 11:03:09;;;;;;;16.33;15.30;;;26.10;99.90;;;;;;6366325;22;20620;-96
2021/06/09 11:06:23;;;;;;;16.20;15.00;;;26.40;99.90;;;;;;6370609;22;20559;-96
2021/06/09 11:12:23;;;;;;;16.43;15.07;;;27.30;99.90;;;;;;6341533;22;20491;-96
2021/06/09 11:14:52;;;;;;;15.00;14.00;;;27.10;99.90;;;;;;6338698;22;21216;-96
2021/06/09 11:17:41;;;;;;;14.37;13.40;;;27.10;99.90;;;;;;6303276;22;20648;-95
2021/06/09 11:20:29;;;;;;;17.40;16.10;;;27.20;99.90;;;;;;6335511;22;20653;-95
2021/06/09 11:29:50;;;;;;;14.57;13.47;;;27.20;99.90;;;;;;6305324;22;20554;-96
2021/06/09 11:36:00;;;;;;;12.90;12.10;;;27.50;99.90;;;;;;6358237;22;20616;-96
2021/06/09 11:38:49;;;;;;;14.33;13.30;;;27.70;96.90;;;;;;6359689;22;20583;-96
2021/06/09 11:44:33;;;;;;;11.50;10.77;;;28.00;98.20;;;;;;6311308;22;20584;-96
2021/06/09 12:33:44;;;;;;;10.23;9.63;;;30.00;89.20;;;;;;6295673;22;20606;-96
2021/06/09 13:33:53;;;;;;;10.43;9.73;;;31.00;92.20;;;;;;6242046;23;20659;-96
2021/06/09 13:36:26;;;;;;;10.20;9.60;;;30.50;92.20;;;;;;6233840;23;20514;-96
2021/06/09 13:39:33;;;;;;;10.10;9.50;;;29.50;95.00;;;;;;6217051;23;20613;-96
2021/06/09 13:42:09;;;;;;;10.40;9.60;;;29.90;94.70;;;;;;6247433;22;20647;-95
2021/06/09 14:06:42;;;;;;;11.53;10.73;;;25.90;99.90;;;;;;6232929;22;20658;-96
2021/06/09 14:09:14;;;;;;;11.00;10.20;;;25.40;99.90;;;;;;6254004;22;20640;-95
2021/06/09 15:04:17;;;;;;;7.17;6.67;;;24.30;99.90;;;;;;6207392;22;20618;-95
2021/06/09 15:25:18;;;;;;;5.90;5.40;;;23.50;99.90;;;;;;6251153;22;20613;-96
2021/06/09 15:27:45;;;;;;;6.93;6.43;;;23.60;99.90;;;;;;6274408;22;20645;-96
2021/06/09 15:36:00;;;;;;;8.10;7.50;;;23.40;99.90;;;;;;6237941;22;20575;-95
2021/06/09 15:46:34;;;;;;;7.07;6.57;;;23.40;99.90;;;;;;6253485;22;20702;-96
2021/06/09 15:52:29;;;;;;;7.10;6.60;;;23.30;99.90;;;;;;6265290;22;20729;-96
2021/06/09 15:57:41;;;;;;;7.20;6.70;;;23.60;99.90;;;;;;6253724;22;20605;-96
2021/06/09 16:08:34;;;;;;;7.73;7.03;;;24.20;99.90;;;;;;6265717;22;20696;-96
2021/06/09 16:11:39;;;;;;;5.50;5.10;;;24.20;99.90;;;;;;6273753;22;20601;-96
2021/06/09 16:23:54;;;;;;;6.00;5.33;;;23.60;99.90;;;;;;6238280;23;20582;-96
2021/06/09 16:26:56;;;;;;;7.37;5.67;;;23.70;99.90;;;;;;6216782;23;20589;-96
2021/06/09 16:47:32;;;;;;;5.90;5.50;;;23.00;99.90;;;;;;6256967;22;20234;-96
2021/06/09 16:49:59;;;;;;;5.27;4.97;;;22.90;99.90;;;;;;6225443;23;20663;-96
2021/06/09 16:52:26;;;;;;;5.80;5.40;;;22.80;99.90;;;;;;6261982;22;20581;-94
2021/06/09 16:55:00;;;;;;;5.63;5.13;;;22.70;99.90;;;;;;6259995;23;20616;-95
2021/06/09 17:03:39;;;;;;;5.77;5.27;;;22.70;99.90;;;;;;6238211;23;20628;-96
2021/06/09 17:11:36;;;;;;;15.17;8.53;;;23.60;99.90;;;;;;6229882;23;20599;-96
2021/06/09 17:14:08;;;;;;;11.77;9.10;;;23.80;99.90;;;;;;6220475;23;21245;-96
2021/06/09 17:16:40;;;;;;;10.10;9.40;;;23.90;99.90;;;;;;6214019;23;20635;-96
2021/06/09 17:19:09;;;;;;;8.60;8.00;;;24.00;99.90;;;;;;6223815;23;20628;-95
2021/06/09 17:24:46;;;;;;;8.70;8.00;;;24.40;99.90;;;;;;6205879;23;20578;-96
2021/06/09 17:29:56;;;;;;;8.10;7.60;;;24.40;99.90;;;;;;6185654;23;20604;-96
2021/06/09 17:32:25;;;;;;;7.80;7.30;;;24.70;99.90;;;;;;6166326;23;20610;-96
2021/06/09 17:37:29;;;;;;;7.60;6.80;;;24.80;99.90;;;;;;6233342;22;20875;-96
2021/06/09 17:39:59;;;;;;;8.77;8.00;;;25.20;99.90;;;;;;6227112;23;20622;-96
2021/06/09 17:42:35;;;;;;;8.57;7.80;;;25.60;99.90;;;;;;6230930;23;20613;-96
2021/06/09 17:45:28;;;;;;;8.00;7.20;;;25.10;99.90;;;;;;6258866;22;20657;-96
2021/06/09 17:58:49;;;;;;;9.47;8.67;;;24.70;99.90;;;;;;6233049;23;20570;-96
2021/06/09 18:01:41;;;;;;;9.20;8.33;;;24.80;99.90;;;;;;6207128;23;20587;-96
2021/06/09 18:04:17;;;;;;;9.73;8.93;;;24.50;99.90;;;;;;6234398;23;20586;-96
2021/06/09 18:06:44;;;;;;;9.30;8.50;;;24.30;99.90;;;;;;6219945;23;20610;-93
2021/06/09 18:09:12;;;;;;;9.63;8.70;;;24.10;99.90;;;;;;6216053;23;21131;-96
2021/06/09 18:11:40;;;;;;;9.80;9.10;;;24.00;99.90;;;;;;6215574;23;20601;-93
2021/06/09 18:14:06;;;;;;;10.37;9.57;;;23.80;99.90;;;;;;6215812;23;21115;-93
2021/06/09 18:16:35;;;;;;;11.67;10.60;;;23.50;99.90;;;;;;6215971;23;20602;-93
2021/06/09 18:19:05;;;;;;;10.57;9.47;;;23.10;99.90;;;;;;6214324;23;20613;-94
2021/06/09 18:21:34;;;;;;;11.90;9.93;;;22.90;99.90;;;;;;6217075;23;20666;-94
2021/06/09 18:24:01;;;;;;;9.70;9.00;;;22.80;99.90;;;;;;6216204;23;20578;-94
2021/06/09 18:26:28;;;;;;;10.10;9.33;;;22.70;99.90;;;;;;6216373;23;20594;-93
2021/06/09 18:29:00;;;;;;;10.20;9.40;;;22.60;99.90;;;;;;6185456;23;21477;-93
2021/06/09 18:49:43;;;;;;;9.30;8.50;;;21.10;99.90;;;;;;6204905;23;20588;-96
2021/06/09 18:52:28;;;;;;;11.17;10.27;;;21.10;99.90;;;;;;6207005;23;20599;-96
2021/06/09 18:54:59;;;;;;;10.70;9.90;;;21.00;99.90;;;;;;6213569;23;20779;-96
2021/06/09 18:57:39;;;;;;;11.03;10.03;;;21.10;99.90;;;;;;6210197;23;20662;-96
2021/06/09 19:00:18;;;;;;;9.57;8.63;;;21.10;99.90;;;;;;6208386;23;20615;-96
2021/06/09 19:03:02;;;;;;;9.60;8.80;;;20.90;99.90;;;;;;6208180;23;21190;-96
2021/06/09 19:05:53;;;;;;;10.03;9.03;;;20.60;99.90;;;;;;6208906;23;20686;-96
2021/06/09 19:08:33;;;;;;;9.40;8.60;;;20.30;99.90;;;;;;6207703;23;20598;-96
2021/06/09 19:11:03;;;;;;;8.70;8.07;;;20.10;99.90;;;;;;6241553;22;20637;-94
2021/06/09 19:14:01;;;;;;;10.27;9.40;;;20.00;99.90;;;;;;6253784;23;20546;-96
2021/06/09 19:16:39;;;;;;;10.00;9.07;;;20.00;99.90;;;;;;6225720;23;20657;-96
2021/06/09 19:19:16;;;;;;;10.50;9.50;;;20.00;99.90;;;;;;6224240;23;20933;-96
2021/06/09 19:24:50;;;;;;;10.80;9.90;;;19.90;99.90;;;;;;6273682;22;20741;-96
2021/06/09 19:27:19;;;;;;;10.30;9.30;;;19.80;99.90;;;;;;6266639;22;20585;-96
2021/06/09 19:32:33;;;;;;;10.80;9.90;;;19.60;99.90;;;;;;6242630;23;20605;-96
2021/06/09 19:35:05;;;;;;;12.60;11.40;;;19.50;99.90;;;;;;6244952;22;20641;-96
2021/06/09 19:37:50;;;;;;;12.23;11.13;;;19.50;99.90;;;;;;6269739;22;20696;-96
2021/06/09 19:40:42;;;;;;;12.90;11.90;;;19.40;99.90;;;;;;6275121;22;20589;-96
2021/06/09 19:46:02;;;;;;;11.80;10.90;;;19.20;99.90;;;;;;6270941;22;20565;-96
2021/06/09 19:48:39;;;;;;;12.40;11.50;;;19.20;99.90;;;;;;6247756;23;20605;-95
2021/06/09 20:25:13;;;;;;;9.97;9.07;;;18.50;99.90;;;;;;6241753;23;20661;-96
2021/06/09 20:27:40;;;;;;;9.97;9.27;;;18.40;99.90;;;;;;6242581;23;20567;-96
2021/06/09 21:58:14;;;;;;;13.30;12.30;;;16.40;99.90;;;;;;6254060;22;20721;-96
2021/06/09 22:03:26;;;;;;;15.87;14.67;;;16.40;99.90;;;;;;6239638;23;20594;-96
2021/06/09 22:09:01;;;;;;;13.07;12.00;;;16.40;99.90;;;;;;6227934;23;20667;-96
2021/06/09 22:12:09;;;;;;;16.00;14.73;;;16.40;99.90;;;;;;6229624;23;20625;-96
2021/06/09 22:18:24;;;;;;;15.03;13.73;;;16.30;99.90;;;;;;6241162;23;20565;-96
2021/06/09 22:23:36;;;;;;;15.23;13.03;;;16.30;99.90;;;;;;6212634;23;20612;-96
2021/06/09 22:29:27;;;;;;;13.90;12.70;;;16.20;99.90;;;;;;6236958;23;20486;-96
2021/06/09 22:32:35;;;;;;;13.47;12.47;;;16.10;99.90;;;;;;6243955;23;20596;-96
2021/06/09 22:35:13;;;;;;;14.23;13.20;;;16.10;99.90;;;;;;6244769;23;20535;-95
2021/06/09 22:37:42;;;;;;;14.97;13.87;;;16.10;99.90;;;;;;6244727;23;20582;-96
2021/06/09 22:40:30;;;;;;;17.20;15.80;;;16.10;99.90;;;;;;6193265;23;20610;-96
2021/06/09 22:43:27;;;;;;;16.87;15.47;;;16.10;99.90;;;;;;6241576;23;20586;-95
2021/06/09 22:45:55;;;;;;;15.00;14.00;;;16.10;99.90;;;;;;6208225;23;20602;-96
2021/06/09 22:48:31;;;;;;;16.43;15.17;;;16.00;99.90;;;;;;6237325;23;20589;-95
2021/06/09 22:51:00;;;;;;;16.90;15.70;;;15.90;99.90;;;;;;6228417;22;20636;-92
2021/06/09 22:54:00;;;;;;;21.20;16.10;;;16.00;99.90;;;;;;6274443;22;20853;-96
2021/06/09 22:59:10;;;;;;;15.20;13.93;;;15.90;99.90;;;;;;6262893;22;20663;-96
2021/06/09 23:01:40;;;;;;;16.10;14.90;;;15.90;99.90;;;;;;6265293;23;20580;-95
2021/06/09 23:04:23;;;;;;;16.63;15.23;;;15.80;99.90;;;;;;6272999;22;20656;-96
2021/06/09 23:09:47;;;;;;;15.53;14.33;;;15.80;99.90;;;;;;6271249;22;20612;-96
2021/06/09 23:15:39;;;;;;;16.40;15.20;;;15.70;99.90;;;;;;6274681;23;20521;-96